Time;durP1;ratioP1;P1;durP2;ratioP2;P2;SDS_P1;SDS_P2;PMS_P1;PMS_P2;Temp;Humidity;BMP_temperature;BMP_pressure;BME280_temperature;BME280_humidity;BME280_pressure;Samples;Min_cycle;Max_cycle;Signal;HPM_P1;HPM_P2
2021/09/07 00:01:04;;;;;;;4.67;1.70;;;26.70;99.90;;;;;;6187329;23;20205;-93
2021/09/07 00:03:36;;;;;;;1.43;1.33;;;26.60;99.90;;;;;;6187769;23;20277;-93
2021/09/07 00:06:08;;;;;;;2.13;1.70;;;26.40;99.90;;;;;;6189293;23;20174;-94
2021/09/07 00:08:39;;;;;;;3.10;1.40;;;26.30;99.90;;;;;;6166211;23;20863;-94
2021/09/07 00:11:14;;;;;;;4.03;1.60;;;26.20;99.90;;;;;;6191731;23;20185;-92
2021/09/07 00:13:47;;;;;;;2.40;1.57;;;26.00;99.90;;;;;;6190932;23;20181;-94
2021/09/07 00:16:18;;;;;;;3.83;1.60;;;25.80;99.90;;;;;;6189687;23;20213;-94
2021/09/07 00:18:50;;;;;;;2.83;1.70;;;25.90;99.90;;;;;;6192162;23;20189;-94
2021/09/07 00:21:21;;;;;;;3.97;1.37;;;26.20;99.90;;;;;;6189451;23;20210;-93
2021/09/07 00:23:52;;;;;;;2.80;1.60;;;26.30;99.90;;;;;;6188951;23;20201;-92
2021/09/07 00:26:28;;;;;;;1.70;1.50;;;26.30;99.90;;;;;;6188238;23;20181;-93
2021/09/07 00:29:00;;;;;;;1.87;1.43;;;26.50;99.90;;;;;;6188637;23;20180;-93
2021/09/07 00:31:31;;;;;;;2.47;1.47;;;26.40;99.90;;;;;;6189435;23;20232;-92
2021/09/07 00:34:02;;;;;;;2.10;1.33;;;26.30;99.90;;;;;;6191477;23;20181;-93
2021/09/07 00:36:34;;;;;;;2.30;1.50;;;26.10;99.90;;;;;;6143396;23;20188;-95
2021/09/07 00:39:06;;;;;;;2.53;1.60;;;26.00;99.90;;;;;;6189427;23;20180;-94
2021/09/07 00:41:42;;;;;;;3.03;1.77;;;26.00;99.90;;;;;;6166311;23;20176;-95
2021/09/07 00:44:18;;;;;;;5.43;1.80;;;26.00;99.90;;;;;;6189605;23;20177;-94
2021/09/07 00:46:52;;;;;;;2.20;1.30;;;26.00;99.90;;;;;;6194265;23;20185;-95
2021/09/07 00:49:24;;;;;;;2.60;1.40;;;25.90;99.90;;;;;;6189673;23;20181;-95
2021/09/07 00:51:57;;;;;;;2.83;1.67;;;25.70;99.90;;;;;;6189389;23;20169;-95
2021/09/07 00:54:38;;;;;;;6.47;1.73;;;25.70;99.90;;;;;;6167054;23;20168;-96
2021/09/07 00:57:11;;;;;;;2.20;1.43;;;25.60;99.90;;;;;;6188325;23;20205;-92
2021/09/07 00:59:43;;;;;;;3.43;1.60;;;25.60;99.90;;;;;;6189499;23;20173;-94
2021/09/07 01:02:15;;;;;;;3.10;1.80;;;25.50;99.90;;;;;;6192158;23;20692;-94
2021/09/07 01:04:47;;;;;;;2.53;1.60;;;25.40;99.90;;;;;;6193449;23;20177;-94
2021/09/07 01:07:21;;;;;;;2.53;1.33;;;25.40;99.90;;;;;;6188982;23;20192;-95
2021/09/07 01:09:54;;;;;;;2.77;1.50;;;25.30;99.90;;;;;;6168842;23;20235;-95
2021/09/07 01:12:29;;;;;;;4.77;1.70;;;25.10;99.90;;;;;;6190069;23;20196;-94
2021/09/07 01:15:00;;;;;;;2.77;1.80;;;24.90;99.90;;;;;;6190108;23;20173;-94
2021/09/07 01:17:33;;;;;;;3.10;1.70;;;24.70;99.90;;;;;;6189360;23;20661;-94
2021/09/07 01:20:04;;;;;;;4.70;2.00;;;24.50;99.90;;;;;;6189108;23;20181;-94
2021/09/07 01:22:36;;;;;;;3.73;1.87;;;24.40;99.90;;;;;;6189781;23;20211;-94
2021/09/07 01:25:11;;;;;;;4.20;2.13;;;24.40;99.90;;;;;;6190348;23;20176;-94
2021/09/07 01:27:42;;;;;;;3.07;1.60;;;24.60;99.90;;;;;;6208014;23;20171;-94
2021/09/07 01:30:15;;;;;;;2.70;1.77;;;24.70;99.90;;;;;;6185975;23;20158;-94
2021/09/07 01:32:47;;;;;;;2.27;1.63;;;24.70;99.90;;;;;;6208846;23;20173;-94
2021/09/07 01:35:21;;;;;;;2.90;1.80;;;24.20;99.90;;;;;;6205753;23;20176;-95
2021/09/07 01:37:52;;;;;;;3.47;2.30;;;23.80;99.90;;;;;;6195195;23;20547;-94
2021/09/07 01:40:27;;;;;;;3.80;2.00;;;23.40;99.90;;;;;;6164401;23;20196;-95
2021/09/07 01:42:58;;;;;;;4.43;1.80;;;23.00;99.90;;;;;;6189627;23;20204;-95
2021/09/07 01:45:31;;;;;;;1.93;1.50;;;22.80;99.90;;;;;;6191941;23;20181;-95
2021/09/07 01:48:02;;;;;;;2.97;1.63;;;22.60;99.90;;;;;;6188458;23;20184;-96
2021/09/07 01:50:35;;;;;;;1.47;1.30;;;22.50;99.90;;;;;;6189806;23;20197;-96
2021/09/07 01:53:09;;;;;;;2.60;2.07;;;22.30;99.90;;;;;;6190270;23;20181;-96
2021/09/07 01:55:45;;;;;;;2.70;1.43;;;22.20;99.90;;;;;;6191205;23;20236;-96
2021/09/07 01:58:17;;;;;;;6.13;2.00;;;22.10;99.90;;;;;;6196830;23;20173;-96
2021/09/07 02:00:49;;;;;;;3.43;1.80;;;22.00;99.90;;;;;;6194642;23;20171;-96
2021/09/07 02:03:21;;;;;;;2.13;1.77;;;21.80;99.90;;;;;;6171470;23;20197;-94
2021/09/07 02:05:53;;;;;;;2.83;1.70;;;21.70;99.90;;;;;;6190990;23;20216;-96
2021/09/07 02:08:26;;;;;;;2.80;2.00;;;21.60;99.90;;;;;;6188346;23;20192;-96
2021/09/07 02:11:01;;;;;;;3.37;1.93;;;21.40;99.90;;;;;;6188506;23;20468;-96
2021/09/07 02:13:33;;;;;;;5.83;2.03;;;21.30;99.90;;;;;;6196803;23;20172;-96
2021/09/07 02:16:04;;;;;;;3.27;1.50;;;21.30;99.90;;;;;;6192513;23;20181;-96
2021/09/07 02:18:36;;;;;;;3.97;1.77;;;21.20;99.90;;;;;;6193825;23;20176;-95
2021/09/07 02:21:08;;;;;;;3.73;2.50;;;21.00;99.90;;;;;;6193383;23;20170;-95
2021/09/07 02:23:39;;;;;;;4.27;2.03;;;20.90;99.90;;;;;;6163284;23;20192;-94
2021/09/07 02:26:14;;;;;;;3.53;1.80;;;20.80;99.90;;;;;;6187250;23;20181;-95
2021/09/07 02:28:45;;;;;;;2.83;2.00;;;20.70;99.90;;;;;;6187665;23;20200;-94
2021/09/07 02:31:16;;;;;;;4.60;1.90;;;20.60;99.90;;;;;;6187545;23;20244;-95
2021/09/07 02:33:47;;;;;;;1.83;1.37;;;20.60;99.90;;;;;;6188530;23;20191;-94
2021/09/07 02:36:20;;;;;;;2.57;2.00;;;20.40;99.90;;;;;;6187076;23;20177;-94
2021/09/07 02:38:52;;;;;;;2.90;1.97;;;20.40;99.90;;;;;;6187496;23;20343;-94
2021/09/07 02:41:27;;;;;;;1.97;1.60;;;20.30;99.90;;;;;;6187580;23;20184;-94
2021/09/07 02:43:58;;;;;;;2.63;1.90;;;20.30;99.90;;;;;;6188631;23;20192;-94
2021/09/07 02:46:32;;;;;;;3.73;1.80;;;20.00;99.90;;;;;;6203114;23;20165;-95
2021/09/07 02:54:28;;;;;;;12.97;4.23;;;19.70;99.90;;;;;;6233771;22;20222;-96
2021/09/07 02:57:02;;;;;;;7.63;3.03;;;19.50;99.90;;;;;;6205939;23;20180;-96
2021/09/07 02:59:33;;;;;;;6.93;2.43;;;19.20;99.90;;;;;;6237649;23;20180;-96
2021/09/07 03:02:05;;;;;;;4.07;1.90;;;19.00;99.90;;;;;;6233202;23;20191;-96
2021/09/07 03:04:36;;;;;;;4.47;2.10;;;18.90;99.90;;;;;;6232589;23;20270;-95
2021/09/07 03:09:54;;;;;;;4.10;1.83;;;18.70;99.90;;;;;;6235205;22;20207;-91
2021/09/07 03:12:28;;;;;;;3.60;2.10;;;18.60;99.90;;;;;;6233311;23;20180;-92
2021/09/07 03:15:01;;;;;;;3.77;1.90;;;18.40;99.90;;;;;;6204375;23;20186;-91
2021/09/07 03:17:33;;;;;;;2.70;2.07;;;18.40;99.90;;;;;;6204673;23;20195;-92
2021/09/07 03:20:04;;;;;;;2.87;2.00;;;18.30;99.90;;;;;;6230531;23;20183;-92
2021/09/07 03:22:36;;;;;;;4.87;2.20;;;18.30;99.90;;;;;;6231255;23;20238;-92
2021/09/07 03:25:12;;;;;;;4.10;2.07;;;18.20;99.90;;;;;;6199285;23;20196;-93
2021/09/07 03:27:51;;;;;;;4.43;2.07;;;18.10;99.90;;;;;;6228855;23;20168;-92
2021/09/07 03:30:23;;;;;;;3.07;2.30;;;18.10;99.90;;;;;;6235413;23;20179;-92
2021/09/07 03:32:55;;;;;;;2.83;2.17;;;18.00;99.90;;;;;;6235882;23;20175;-92
2021/09/07 03:35:27;;;;;;;2.83;2.37;;;17.90;99.90;;;;;;6221907;23;20739;-91
2021/09/07 03:38:01;;;;;;;3.20;2.10;;;18.00;99.90;;;;;;6225118;23;20176;-92
2021/09/07 03:40:33;;;;;;;5.13;1.80;;;17.90;99.90;;;;;;6200779;23;20195;-92
2021/09/07 03:43:11;;;;;;;3.90;2.13;;;17.90;99.90;;;;;;6227454;23;20504;-91
2021/09/07 03:45:43;;;;;;;3.40;2.03;;;17.90;99.90;;;;;;6231637;23;20181;-93
2021/09/07 03:48:14;;;;;;;5.67;2.13;;;17.80;99.90;;;;;;6229639;23;20192;-94
2021/09/07 03:50:48;;;;;;;3.90;2.30;;;17.80;99.90;;;;;;6232820;23;20211;-93
2021/09/07 03:53:21;;;;;;;4.07;1.83;;;17.80;99.90;;;;;;6231975;23;20215;-92
2021/09/07 03:55:56;;;;;;;5.43;2.17;;;17.70;99.90;;;;;;6240743;22;20157;-93
2021/09/07 03:58:30;;;;;;;4.60;2.07;;;17.70;99.90;;;;;;6243437;22;20160;-90
2021/09/07 04:01:02;;;;;;;3.43;2.07;;;17.70;99.90;;;;;;6215639;22;20160;-92
2021/09/07 04:03:35;;;;;;;4.13;2.10;;;17.80;99.90;;;;;;6223529;23;20176;-92
2021/09/07 04:06:08;;;;;;;3.60;1.97;;;17.70;99.90;;;;;;6194528;23;20200;-93
2021/09/07 04:08:41;;;;;;;3.80;2.53;;;17.60;99.90;;;;;;6227822;23;20189;-93
2021/09/07 04:11:15;;;;;;;2.93;2.10;;;17.50;99.90;;;;;;6223775;23;20190;-93
2021/09/07 04:13:49;;;;;;;4.10;2.30;;;17.40;99.90;;;;;;6218019;23;20180;-92
2021/09/07 04:16:21;;;;;;;2.43;1.80;;;17.40;99.90;;;;;;6224225;23;20517;-92
2021/09/07 04:18:52;;;;;;;4.80;2.40;;;17.40;99.90;;;;;;6227756;23;20173;-91
2021/09/07 04:21:23;;;;;;;7.00;2.53;;;17.30;99.90;;;;;;6232946;23;20223;-91
2021/09/07 04:23:55;;;;;;;4.97;2.53;;;17.20;99.90;;;;;;6233386;23;20176;-90
2021/09/07 04:26:28;;;;;;;5.07;2.13;;;17.10;99.90;;;;;;6228830;23;20165;-93
2021/09/07 04:29:02;;;;;;;3.90;2.70;;;17.10;99.90;;;;;;6198227;23;20195;-91
2021/09/07 04:31:34;;;;;;;5.17;2.50;;;17.10;99.90;;;;;;6230996;23;20176;-92
2021/09/07 04:34:06;;;;;;;5.07;2.33;;;17.00;99.90;;;;;;6239790;23;20183;-91
2021/09/07 04:36:52;;;;;;;5.07;2.50;;;16.90;99.90;;;;;;6238682;22;20179;-91
2021/09/07 04:39:25;;;;;;;3.53;2.43;;;16.90;99.90;;;;;;6242919;22;20175;-92
2021/09/07 04:41:58;;;;;;;4.50;2.10;;;16.80;99.90;;;;;;6241323;22;20157;-92
2021/09/07 04:44:32;;;;;;;4.47;2.33;;;16.70;99.90;;;;;;6239533;22;20192;-92
2021/09/07 04:47:03;;;;;;;2.50;2.07;;;16.70;99.90;;;;;;6232163;22;20203;-92
2021/09/07 04:49:34;;;;;;;2.30;2.10;;;16.60;99.90;;;;;;6239479;22;20177;-91
2021/09/07 04:52:06;;;;;;;3.67;2.93;;;16.60;99.90;;;;;;6238278;22;20227;-92
2021/09/07 04:54:37;;;;;;;4.03;2.30;;;16.50;99.90;;;;;;6237264;22;20336;-91
2021/09/07 04:57:09;;;;;;;3.90;2.40;;;16.40;99.90;;;;;;6203988;23;20193;-91
2021/09/07 04:59:44;;;;;;;4.17;2.50;;;16.40;99.90;;;;;;6163818;23;20221;-91
2021/09/07 05:02:16;;;;;;;3.77;2.50;;;16.40;99.90;;;;;;6196359;23;20199;-91
2021/09/07 05:04:48;;;;;;;2.67;2.27;;;16.30;99.90;;;;;;6173811;23;20208;-91
2021/09/07 05:07:27;;;;;;;4.90;2.20;;;16.30;99.90;;;;;;6201271;23;20177;-92
2021/09/07 05:09:59;;;;;;;2.93;2.23;;;16.30;99.90;;;;;;6200746;23;20188;-91
2021/09/07 05:12:30;;;;;;;3.03;2.40;;;16.30;99.90;;;;;;6203283;23;20575;-92
2021/09/07 05:15:05;;;;;;;2.97;1.93;;;16.30;99.90;;;;;;6195772;23;20173;-91
2021/09/07 05:17:37;;;;;;;3.40;1.93;;;16.20;99.90;;;;;;6189591;23;20230;-90
2021/09/07 05:20:10;;;;;;;7.33;2.63;;;16.20;99.90;;;;;;6205459;23;20161;-92
2021/09/07 05:22:41;;;;;;;4.23;2.43;;;16.20;99.90;;;;;;6175802;23;20226;-93
2021/09/07 05:25:13;;;;;;;4.80;2.30;;;16.10;99.90;;;;;;6191272;23;20204;-92
2021/09/07 05:27:44;;;;;;;4.60;2.67;;;16.10;99.90;;;;;;6188081;23;20181;-90
2021/09/07 05:30:17;;;;;;;4.10;2.60;;;16.00;99.90;;;;;;6188215;23;20185;-92
2021/09/07 05:32:48;;;;;;;2.93;2.30;;;16.00;99.90;;;;;;6187616;23;20177;-93
2021/09/07 05:35:20;;;;;;;3.83;2.50;;;16.00;99.90;;;;;;6187525;23;20658;-93
2021/09/07 05:37:52;;;;;;;4.53;2.17;;;15.90;99.90;;;;;;6187082;23;20616;-92
2021/09/07 05:40:24;;;;;;;4.00;2.60;;;16.00;99.90;;;;;;6191436;23;20189;-93
2021/09/07 05:42:56;;;;;;;5.27;2.93;;;15.90;99.90;;;;;;6194458;23;20173;-92
2021/09/07 05:45:29;;;;;;;4.50;2.70;;;15.90;99.90;;;;;;6194409;23;20205;-92
2021/09/07 05:48:01;;;;;;;3.83;2.50;;;15.90;99.90;;;;;;6194524;23;20177;-93
2021/09/07 05:50:32;;;;;;;3.20;2.20;;;15.90;99.90;;;;;;6187300;23;20196;-92
2021/09/07 05:53:04;;;;;;;4.73;2.47;;;16.00;99.90;;;;;;6186547;23;20184;-92
2021/09/07 05:55:36;;;;;;;4.37;2.53;;;16.00;99.90;;;;;;6187881;23;20181;-91
2021/09/07 05:58:07;;;;;;;4.03;2.90;;;16.00;99.90;;;;;;6187677;23;20187;-91
2021/09/07 06:00:40;;;;;;;3.73;2.80;;;16.00;99.90;;;;;;6188634;23;20189;-91
2021/09/07 06:03:13;;;;;;;2.97;2.63;;;16.00;99.90;;;;;;6190499;23;20177;-91
2021/09/07 06:05:44;;;;;;;4.63;3.07;;;16.10;99.90;;;;;;6191099;23;20197;-92
2021/09/07 06:11:16;;;;;;;4.27;3.20;;;16.10;99.90;;;;;;6205752;23;20169;-91
2021/09/07 06:13:47;;;;;;;5.67;3.03;;;16.00;99.90;;;;;;6210108;23;20181;-90
2021/09/07 06:16:21;;;;;;;4.70;3.17;;;16.00;99.90;;;;;;6209077;23;20173;-93
2021/09/07 06:18:52;;;;;;;3.80;3.17;;;16.00;99.90;;;;;;6200936;23;20509;-91
2021/09/07 06:21:24;;;;;;;5.03;3.30;;;16.00;99.90;;;;;;6192662;23;20185;-91
2021/09/07 06:24:06;;;;;;;3.17;2.87;;;16.00;99.90;;;;;;6219840;23;20188;-92
2021/09/07 06:26:37;;;;;;;5.30;2.97;;;15.90;99.90;;;;;;6219463;23;20250;-91
2021/09/07 06:29:09;;;;;;;4.77;3.47;;;15.90;99.90;;;;;;6192650;23;20686;-92
2021/09/07 06:31:43;;;;;;;5.57;3.30;;;15.80;99.90;;;;;;6216859;23;20188;-92
2021/09/07 06:34:14;;;;;;;3.37;3.03;;;15.90;99.90;;;;;;6189815;23;20180;-92
2021/09/07 06:36:46;;;;;;;4.43;3.10;;;15.90;99.90;;;;;;6189394;23;20200;-91
2021/09/07 06:39:17;;;;;;;3.60;2.90;;;15.80;99.90;;;;;;6216260;23;20176;-91
2021/09/07 06:41:49;;;;;;;3.93;3.20;;;15.70;99.90;;;;;;6217259;23;20165;-92
2021/09/07 06:44:20;;;;;;;3.27;2.80;;;15.70;99.90;;;;;;6192746;23;20168;-90
2021/09/07 06:46:54;;;;;;;4.40;3.17;;;15.70;99.90;;;;;;6214768;23;20243;-91
2021/09/07 06:49:25;;;;;;;4.30;2.83;;;15.60;99.90;;;;;;6189275;23;20237;-90
2021/09/07 06:52:00;;;;;;;4.90;3.57;;;15.60;99.90;;;;;;6215390;23;20186;-90
2021/09/07 06:54:32;;;;;;;4.43;3.30;;;15.60;99.90;;;;;;6216757;23;20188;-90
2021/09/07 06:57:03;;;;;;;3.60;3.10;;;15.60;99.90;;;;;;6232284;23;20176;-90
2021/09/07 06:59:36;;;;;;;6.00;3.40;;;15.60;99.90;;;;;;6231861;23;20160;-90
2021/09/07 07:02:12;;;;;;;5.43;3.53;;;15.60;99.90;;;;;;6208913;23;20187;-90
2021/09/07 07:04:44;;;;;;;3.93;3.07;;;15.60;99.90;;;;;;6216559;23;20248;-91
2021/09/07 07:07:15;;;;;;;3.50;3.17;;;15.50;99.90;;;;;;6214806;23;20593;-90
2021/09/07 07:09:47;;;;;;;4.63;3.20;;;15.50;99.90;;;;;;6217310;23;20203;-90
2021/09/07 07:12:18;;;;;;;4.00;3.10;;;15.40;99.90;;;;;;6216648;23;20176;-91
2021/09/07 07:14:49;;;;;;;6.07;3.60;;;15.30;99.90;;;;;;6215949;23;20169;-91
2021/09/07 07:17:23;;;;;;;3.53;3.23;;;15.30;99.90;;;;;;6216728;23;20192;-91
2021/09/07 07:19:55;;;;;;;4.33;3.63;;;15.30;99.90;;;;;;6217948;23;20234;-91
2021/09/07 07:22:27;;;;;;;4.27;3.17;;;15.20;99.90;;;;;;6218065;23;20192;-91
2021/09/07 07:24:59;;;;;;;4.67;3.77;;;15.20;99.90;;;;;;6191839;23;20191;-91
2021/09/07 07:27:31;;;;;;;4.40;3.30;;;15.10;99.90;;;;;;6191107;23;20196;-92
2021/09/07 07:30:02;;;;;;;5.40;3.57;;;15.10;99.90;;;;;;6192936;23;20210;-91
2021/09/07 07:32:36;;;;;;;4.00;2.97;;;15.00;99.90;;;;;;6191933;23;20203;-92
2021/09/07 07:35:08;;;;;;;8.20;3.40;;;15.00;99.90;;;;;;6217061;23;20184;-92
2021/09/07 07:37:39;;;;;;;4.67;3.60;;;14.90;99.90;;;;;;6216481;23;20228;-92
2021/09/07 07:40:11;;;;;;;5.83;3.30;;;14.90;99.90;;;;;;6218327;23;20176;-92
2021/09/07 07:42:42;;;;;;;6.63;3.87;;;14.80;99.90;;;;;;6218746;23;20180;-92
2021/09/07 07:45:13;;;;;;;5.63;3.53;;;14.80;99.90;;;;;;6217975;23;20176;-91
2021/09/07 07:47:48;;;;;;;6.87;3.83;;;14.70;99.90;;;;;;6216627;23;20220;-91
2021/09/07 07:50:19;;;;;;;5.87;3.73;;;14.60;99.90;;;;;;6191286;23;20310;-89
2021/09/07 07:52:50;;;;;;;4.40;3.37;;;14.60;99.90;;;;;;6217627;23;20498;-89
2021/09/07 07:55:22;;;;;;;5.00;4.00;;;14.50;99.90;;;;;;6217724;23;20196;-91
2021/09/07 07:57:53;;;;;;;5.70;3.90;;;14.50;99.90;;;;;;6216467;23;20181;-90
2021/09/07 08:00:24;;;;;;;7.27;3.73;;;14.50;99.90;;;;;;6217515;23;20188;-91
2021/09/07 08:02:58;;;;;;;5.33;3.53;;;14.50;99.90;;;;;;6217734;23;20161;-92
2021/09/07 08:05:39;;;;;;;4.90;3.73;;;14.50;99.90;;;;;;6192844;23;20303;-92
2021/09/07 08:08:10;;;;;;;5.17;3.33;;;14.40;99.90;;;;;;6216945;23;20499;-90
2021/09/07 08:10:41;;;;;;;5.53;4.00;;;14.40;99.90;;;;;;6190905;23;20176;-91
2021/09/07 08:13:15;;;;;;;7.93;3.60;;;14.30;99.90;;;;;;6217371;23;20180;-90
2021/09/07 08:15:47;;;;;;;4.50;3.47;;;14.30;99.90;;;;;;6216512;23;20662;-92
2021/09/07 08:18:21;;;;;;;5.67;3.70;;;14.30;99.90;;;;;;6168621;23;20543;-92
2021/09/07 08:20:52;;;;;;;4.53;3.60;;;14.30;99.90;;;;;;6217617;23;20176;-92
2021/09/07 08:23:24;;;;;;;4.27;3.83;;;14.20;99.90;;;;;;6219437;23;20212;-92
2021/09/07 08:25:55;;;;;;;5.93;4.30;;;14.20;99.90;;;;;;6222626;23;20180;-91
2021/09/07 08:28:26;;;;;;;5.53;4.00;;;14.20;99.90;;;;;;6239859;23;20203;-92
2021/09/07 08:33:47;;;;;;;5.10;3.97;;;14.10;99.90;;;;;;6235658;23;20175;-92
2021/09/07 08:36:19;;;;;;;5.33;4.03;;;14.10;99.90;;;;;;6227527;23;20237;-91
2021/09/07 08:38:50;;;;;;;6.40;3.87;;;14.10;99.90;;;;;;6216969;23;20177;-91
2021/09/07 08:41:22;;;;;;;8.43;4.73;;;14.10;99.90;;;;;;6216452;23;20505;-91
2021/09/07 08:43:55;;;;;;;6.47;4.13;;;14.00;99.90;;;;;;6216431;23;20223;-91
2021/09/07 08:46:26;;;;;;;7.87;4.07;;;14.00;99.90;;;;;;6214314;23;20200;-90
2021/09/07 08:49:19;;;;;;;8.07;3.93;;;14.00;99.90;;;;;;6215775;23;20180;-92
2021/09/07 08:51:50;;;;;;;5.30;3.83;;;14.00;99.90;;;;;;6216429;23;20618;-88
2021/09/07 08:54:22;;;;;;;6.77;3.67;;;13.90;99.90;;;;;;6218846;23;20192;-89
2021/09/07 08:56:53;;;;;;;5.77;4.20;;;13.90;99.90;;;;;;6215811;23;20176;-89
2021/09/07 08:59:24;;;;;;;4.63;3.83;;;13.90;99.90;;;;;;6217400;23;20275;-89
2021/09/07 09:01:57;;;;;;;5.50;4.10;;;13.90;99.90;;;;;;6215937;23;20184;-90
2021/09/07 09:04:33;;;;;;;7.80;4.43;;;13.90;99.90;;;;;;6215539;23;20203;-89
2021/09/07 09:07:04;;;;;;;7.00;4.20;;;13.80;99.90;;;;;;6215541;23;20261;-89
2021/09/07 09:09:38;;;;;;;5.73;4.03;;;13.70;99.90;;;;;;6190910;23;20661;-91
2021/09/07 09:12:10;;;;;;;8.10;3.87;;;13.70;99.90;;;;;;6215462;23;20172;-91
2021/09/07 09:14:43;;;;;;;5.33;4.23;;;13.60;99.90;;;;;;6216499;23;20390;-91
2021/09/07 09:17:32;;;;;;;8.90;4.13;;;13.60;99.90;;;;;;6217622;23;20590;-92
2021/09/07 09:20:08;;;;;;;7.37;4.00;;;13.60;99.90;;;;;;6216863;23;20496;-92
2021/09/07 09:22:49;;;;;;;8.87;4.27;;;13.60;99.90;;;;;;6218174;23;20235;-92
2021/09/07 09:25:38;;;;;;;6.80;4.20;;;13.60;99.90;;;;;;6217016;23;20175;-93
2021/09/07 09:28:24;;;;;;;6.07;3.77;;;13.60;99.90;;;;;;6220046;23;20465;-92
2021/09/07 09:30:58;;;;;;;7.83;4.60;;;13.60;99.90;;;;;;6217862;23;20187;-91
2021/09/07 09:33:30;;;;;;;6.87;4.10;;;13.60;99.90;;;;;;6217930;23;20181;-91
2021/09/07 09:36:05;;;;;;;5.33;4.10;;;13.60;99.90;;;;;;6216122;23;20195;-91
2021/09/07 09:38:45;;;;;;;5.30;4.00;;;13.60;99.90;;;;;;6216770;23;20176;-91
2021/09/07 09:41:17;;;;;;;9.27;4.53;;;13.60;99.90;;;;;;6216746;23;20616;-92
2021/09/07 09:43:48;;;;;;;4.47;3.93;;;13.60;99.90;;;;;;6190197;23;20165;-91
2021/09/07 09:46:24;;;;;;;4.90;4.10;;;13.60;99.90;;;;;;6215662;23;20183;-91
2021/09/07 09:49:13;;;;;;;8.30;4.33;;;13.60;99.90;;;;;;6191656;23;20250;-90
2021/09/07 09:51:46;;;;;;;7.70;4.30;;;13.60;99.90;;;;;;6216336;23;20168;-90
2021/09/07 09:54:26;;;;;;;7.10;5.03;;;13.50;99.90;;;;;;6217374;23;20176;-90
2021/09/07 09:56:59;;;;;;;4.60;3.90;;;13.50;99.90;;;;;;6217079;23;20188;-89
2021/09/07 09:59:30;;;;;;;6.10;4.63;;;13.50;99.90;;;;;;6219600;23;20199;-90
2021/09/07 10:02:03;;;;;;;6.03;4.43;;;13.50;99.90;;;;;;6230227;23;20180;-88
2021/09/07 10:04:34;;;;;;;7.90;4.60;;;13.40;99.90;;;;;;6235692;23;20160;-90
2021/09/07 10:07:09;;;;;;;7.73;4.97;;;13.40;99.90;;;;;;6234049;23;20192;-91
2021/09/07 10:09:43;;;;;;;7.73;4.50;;;13.40;99.90;;;;;;6200081;23;20179;-90
2021/09/07 10:12:19;;;;;;;8.97;4.60;;;13.40;99.90;;;;;;6194866;23;20638;-90
2021/09/07 10:14:57;;;;;;;6.70;4.97;;;13.40;99.90;;;;;;6220877;23;20183;-90
2021/09/07 10:20:19;;;;;;;6.33;4.13;;;13.40;99.90;;;;;;6212120;23;20477;-90
2021/09/07 10:25:56;;;;;;;6.00;3.67;;;13.30;99.90;;;;;;6216104;23;20176;-92
2021/09/07 10:28:35;;;;;;;7.40;4.37;;;13.30;99.90;;;;;;6216427;23;20195;-92
2021/09/07 10:31:10;;;;;;;7.87;4.30;;;13.20;99.90;;;;;;6190664;23;20176;-91
2021/09/07 10:33:43;;;;;;;5.90;4.20;;;13.20;99.90;;;;;;6216870;23;20637;-92
2021/09/07 10:36:18;;;;;;;6.03;4.23;;;13.30;99.90;;;;;;6217485;23;20188;-91
2021/09/07 10:38:54;;;;;;;5.43;4.03;;;13.20;99.90;;;;;;6192173;23;20168;-91
2021/09/07 10:41:45;;;;;;;6.63;3.90;;;13.20;99.90;;;;;;6225219;23;20179;-92
2021/09/07 10:44:31;;;;;;;5.57;4.17;;;13.20;99.90;;;;;;6238139;23;20191;-93
2021/09/07 10:47:11;;;;;;;6.63;4.43;;;13.10;99.90;;;;;;6234391;23;20172;-90
2021/09/07 10:49:50;;;;;;;7.30;4.07;;;13.10;99.90;;;;;;6167683;23;20819;-90
2021/09/07 10:52:34;;;;;;;5.63;4.07;;;13.10;99.90;;;;;;6211944;23;20177;-91
2021/09/07 10:55:38;;;;;;;6.70;4.50;;;13.10;99.90;;;;;;6210598;23;20611;-89
2021/09/07 10:58:10;;;;;;;8.43;4.40;;;13.10;99.90;;;;;;6217798;23;20264;-90
2021/09/07 11:00:43;;;;;;;8.00;4.73;;;13.10;99.90;;;;;;6216532;23;20187;-89
2021/09/07 11:03:25;;;;;;;5.77;4.23;;;13.00;99.90;;;;;;6192073;23;20197;-89
2021/09/07 11:05:57;;;;;;;6.70;4.43;;;13.00;99.90;;;;;;6215184;23;20172;-91
2021/09/07 11:08:45;;;;;;;7.47;4.10;;;13.00;99.90;;;;;;6214698;23;20231;-91
2021/09/07 11:11:28;;;;;;;6.93;4.00;;;13.00;99.90;;;;;;6215687;23;20379;-90
2021/09/07 11:14:16;;;;;;;6.17;4.20;;;13.00;99.90;;;;;;6215867;23;20203;-91
2021/09/07 11:16:54;;;;;;;6.37;4.10;;;13.00;99.90;;;;;;6222323;23;20176;-92
2021/09/07 11:19:25;;;;;;;4.37;3.67;;;13.00;99.90;;;;;;6224404;23;20176;-91
2021/09/07 11:21:56;;;;;;;5.77;3.83;;;13.00;99.90;;;;;;6214843;23;20192;-92
2021/09/07 11:24:27;;;;;;;5.47;3.90;;;12.90;99.90;;;;;;6218873;23;20179;-92
2021/09/07 11:27:15;;;;;;;5.53;4.03;;;12.90;99.90;;;;;;6215447;23;20243;-92
2021/09/07 11:29:47;;;;;;;6.90;3.87;;;12.90;99.90;;;;;;6217946;23;20187;-92
2021/09/07 11:32:25;;;;;;;9.17;4.63;;;12.90;99.90;;;;;;6215787;23;20196;-92
2021/09/07 11:35:10;;;;;;;4.97;3.87;;;12.90;99.90;;;;;;6216153;23;20299;-90
2021/09/07 11:37:41;;;;;;;6.27;4.40;;;12.80;99.90;;;;;;6188051;23;20180;-90
2021/09/07 11:40:15;;;;;;;6.13;4.10;;;12.80;99.90;;;;;;6215589;23;20180;-90
2021/09/07 11:42:59;;;;;;;5.50;3.97;;;12.80;99.90;;;;;;6215658;23;20175;-92
2021/09/07 11:45:32;;;;;;;4.57;3.47;;;12.90;99.90;;;;;;6216755;23;20172;-91
2021/09/07 11:48:05;;;;;;;5.60;3.70;;;12.80;99.90;;;;;;6191680;23;20196;-89
2021/09/07 11:50:38;;;;;;;5.20;3.90;;;12.80;99.90;;;;;;6214666;23;20176;-90
2021/09/07 11:53:12;;;;;;;5.50;4.00;;;12.80;99.90;;;;;;6214466;23;20173;-90
2021/09/07 11:55:47;;;;;;;8.70;4.47;;;12.80;99.90;;;;;;6213364;23;20173;-93
2021/09/07 11:58:33;;;;;;;9.33;4.13;;;12.80;99.90;;;;;;6214600;23;20234;-89
2021/09/07 12:01:07;;;;;;;7.50;3.77;;;12.80;99.90;;;;;;6215770;23;20198;-90
2021/09/07 12:03:47;;;;;;;7.03;4.40;;;12.70;99.90;;;;;;6217504;23;20273;-89
2021/09/07 12:06:22;;;;;;;4.77;3.77;;;12.80;99.90;;;;;;6215694;23;20172;-90
2021/09/07 12:08:54;;;;;;;4.90;3.57;;;12.70;99.90;;;;;;6191905;23;20681;-90
2021/09/07 12:11:32;;;;;;;6.40;4.57;;;12.70;99.90;;;;;;6218163;23;20212;-90
2021/09/07 12:14:10;;;;;;;5.90;4.43;;;12.70;99.90;;;;;;6216826;23;20195;-89
2021/09/07 12:16:52;;;;;;;5.93;4.03;;;12.70;99.90;;;;;;6215249;23;20661;-90
2021/09/07 12:19:31;;;;;;;5.77;4.13;;;12.60;99.90;;;;;;6217469;23;20176;-90
2021/09/07 12:22:14;;;;;;;5.70;4.20;;;12.50;99.90;;;;;;6217195;23;20165;-91
2021/09/07 12:25:00;;;;;;;7.00;4.43;;;12.50;99.90;;;;;;6217550;23;20244;-91
2021/09/07 12:27:43;;;;;;;6.63;3.80;;;12.40;99.90;;;;;;6216257;23;20226;-91
2021/09/07 12:30:22;;;;;;;5.73;4.20;;;12.40;99.90;;;;;;6216245;23;20232;-91
2021/09/07 12:32:56;;;;;;;8.83;3.97;;;12.40;99.90;;;;;;6217016;23;20172;-91
2021/09/07 12:35:36;;;;;;;5.97;4.27;;;12.30;99.90;;;;;;6216526;23;20188;-91
2021/09/07 12:38:11;;;;;;;5.67;4.30;;;12.30;99.90;;;;;;6216944;23;20180;-91
2021/09/07 12:40:44;;;;;;;7.00;4.63;;;12.30;99.90;;;;;;6217020;23;20168;-93
2021/09/07 12:43:17;;;;;;;8.30;4.60;;;12.20;99.90;;;;;;6216944;23;20234;-90
2021/09/07 12:45:54;;;;;;;6.73;4.27;;;12.20;99.90;;;;;;6217307;23;20589;-91
2021/09/07 12:48:25;;;;;;;6.47;4.40;;;12.20;99.90;;;;;;6217931;23;20208;-90
2021/09/07 12:50:58;;;;;;;7.77;4.87;;;12.20;99.90;;;;;;6219642;23;20165;-90
2021/09/07 12:53:34;;;;;;;5.93;4.27;;;12.20;99.90;;;;;;6218638;23;20171;-90
2021/09/07 12:56:07;;;;;;;6.13;4.83;;;12.20;99.90;;;;;;6221117;23;20191;-89
2021/09/07 12:58:40;;;;;;;7.13;4.70;;;12.10;99.90;;;;;;6238803;23;20644;-90
2021/09/07 13:01:13;;;;;;;6.43;4.87;;;12.10;99.90;;;;;;6236563;23;20175;-89
2021/09/07 13:03:46;;;;;;;9.33;5.13;;;12.00;99.90;;;;;;6228881;23;20792;-90
2021/09/07 13:06:19;;;;;;;7.63;5.00;;;12.00;99.90;;;;;;6216305;23;20238;-90
2021/09/07 13:08:51;;;;;;;7.57;4.53;;;12.10;99.90;;;;;;6216452;23;20195;-90
2021/09/07 13:11:24;;;;;;;6.90;4.67;;;12.00;99.90;;;;;;6190358;23;20184;-90
2021/09/07 13:14:00;;;;;;;8.57;4.10;;;12.00;99.90;;;;;;6216609;23;20185;-89
2021/09/07 13:16:33;;;;;;;8.20;4.70;;;12.00;99.90;;;;;;6214058;23;20202;-90
2021/09/07 13:19:05;;;;;;;6.43;4.43;;;12.00;99.90;;;;;;6216134;23;20173;-90
2021/09/07 13:21:51;;;;;;;7.77;4.80;;;12.00;99.90;;;;;;6216338;23;20192;-90
2021/09/07 13:24:22;;;;;;;6.27;4.50;;;12.00;99.90;;;;;;6190526;23;20251;-91
2021/09/07 13:26:53;;;;;;;6.63;4.47;;;11.90;99.90;;;;;;6215012;23;20259;-91
2021/09/07 13:29:24;;;;;;;7.53;4.80;;;12.00;99.90;;;;;;6215354;23;20200;-92
2021/09/07 13:31:57;;;;;;;6.80;4.50;;;12.00;99.90;;;;;;6216678;23;20176;-91
2021/09/07 13:34:28;;;;;;;7.20;4.63;;;12.00;99.90;;;;;;6215706;23;20187;-89
2021/09/07 13:36:59;;;;;;;6.87;4.83;;;12.00;99.90;;;;;;6214766;23;20189;-91
2021/09/07 13:39:31;;;;;;;6.73;4.63;;;12.00;99.90;;;;;;6215616;23;20176;-90
2021/09/07 13:42:02;;;;;;;7.33;4.90;;;12.00;99.90;;;;;;6226728;23;20240;-91